createdAt,value
2022-10-23T00:01:13.129Z,15.35
2022-10-23T00:03:40.531Z,15.18
2022-10-23T00:06:08.177Z,14.50
2022-10-23T00:08:35.567Z,18.70
2022-10-23T00:11:10.369Z,19.38
2022-10-23T00:13:38.179Z,17.73
2022-10-23T00:16:05.813Z,11.85
2022-10-23T00:18:33.652Z,20.38
2022-10-23T00:21:01.661Z,19.23
2022-10-23T00:23:29.012Z,15.60
2022-10-23T00:25:56.343Z,16.50
2022-10-23T00:28:24.191Z,19.40
2022-10-23T00:30:51.473Z,13.68
2022-10-23T00:33:19.002Z,12.45
2022-10-23T00:35:46.387Z,17.70
2022-10-23T00:38:13.764Z,12.90
2022-10-23T00:40:44.081Z,17.60
2022-10-23T00:43:19.649Z,13.98
2022-10-23T00:45:47.695Z,14.43
2022-10-23T00:48:16.912Z,18.63
2022-10-23T00:50:46.544Z,17.00
2022-10-23T00:53:16.763Z,17.83
2022-10-23T00:55:48.588Z,15.25
2022-10-23T00:58:19.128Z,14.40
2022-10-23T01:00:53.785Z,15.88
2022-10-23T01:06:02.239Z,17.52
2022-10-23T01:08:38.672Z,18.70
2022-10-23T01:11:26.999Z,15.00
2022-10-23T01:14:26.998Z,18.83
2022-10-23T01:17:06.453Z,14.07
2022-10-23T01:19:44.914Z,15.88
2022-10-23T01:22:49.870Z,16.60
2022-10-23T01:25:47.470Z,15.50
2022-10-23T01:28:24.258Z,22.40
2022-10-23T01:30:51.801Z,23.08
2022-10-23T01:33:57.779Z,15.05
2022-10-23T01:36:31.995Z,14.73
2022-10-23T01:39:09.628Z,14.65
2022-10-23T01:41:48.661Z,17.13
2022-10-23T01:44:34.154Z,15.68
2022-10-23T01:47:03.704Z,19.33
2022-10-23T01:49:35.726Z,16.33
2022-10-23T01:52:08.036Z,16.98
2022-10-23T01:54:40.816Z,16.73
2022-10-23T01:57:12.025Z,17.70
2022-10-23T01:59:45.939Z,15.88
2022-10-23T02:02:15.453Z,13.88
2022-10-23T02:04:53.512Z,12.57
2022-10-23T02:07:21.084Z,14.75
2022-10-23T02:09:48.684Z,19.20
2022-10-23T02:12:25.202Z,15.60
2022-10-23T02:15:03.079Z,12.70
2022-10-23T02:17:54.067Z,15.95
2022-10-23T02:20:33.573Z,15.43
2022-10-23T02:23:16.146Z,15.68
2022-10-23T02:25:59.980Z,17.33
2022-10-23T02:28:33.762Z,17.20
2022-10-23T02:31:05.127Z,12.68
2022-10-23T02:33:34.623Z,15.82
2022-10-23T02:36:02.540Z,14.40
2022-10-23T02:38:40.539Z,18.02
2022-10-23T02:41:10.691Z,18.05
2022-10-23T02:43:54.533Z,17.15
2022-10-23T02:46:34.677Z,14.05
2022-10-23T02:49:22.670Z,15.65
2022-10-23T02:52:16.830Z,16.80
2022-10-23T02:54:47.102Z,16.45
2022-10-23T02:57:31.124Z,14.55
2022-10-23T03:00:04.067Z,14.68
2022-10-23T03:02:44.102Z,15.77
2022-10-23T03:05:18.377Z,15.23
2022-10-23T03:07:46.915Z,16.25
2022-10-23T03:10:16.756Z,13.52
2022-10-23T03:12:44.636Z,12.98
2022-10-23T03:15:12.567Z,15.95
2022-10-23T03:17:40.557Z,12.07
2022-10-23T03:20:09.029Z,14.27
2022-10-23T03:22:36.673Z,15.63
2022-10-23T03:25:04.733Z,14.02
2022-10-23T03:27:33.514Z,14.95
2022-10-23T03:30:06.206Z,12.80
2022-10-23T03:32:35.323Z,15.05
2022-10-23T03:35:03.027Z,16.10
2022-10-23T03:37:30.361Z,15.82
2022-10-23T03:39:57.747Z,12.30
2022-10-23T03:42:25.076Z,13.05
2022-10-23T03:44:52.495Z,12.23
2022-10-23T03:47:19.963Z,13.50
2022-10-23T03:49:47.487Z,16.48
2022-10-23T03:52:14.910Z,12.38
2022-10-23T03:54:42.294Z,12.52
2022-10-23T03:57:10.971Z,20.20
2022-10-23T03:59:38.239Z,12.40
2022-10-23T04:02:06.998Z,17.65
2022-10-23T04:04:34.418Z,15.93
2022-10-23T04:07:01.758Z,18.20
2022-10-23T04:09:29.393Z,11.98
2022-10-23T04:11:57.170Z,14.10
2022-10-23T04:14:27.978Z,12.02
2022-10-23T04:16:55.301Z,13.27
2022-10-23T04:19:22.649Z,13.73
2022-10-23T04:21:50.108Z,13.73
2022-10-23T04:24:17.460Z,14.00
2022-10-23T04:26:45.085Z,17.80
2022-10-23T04:29:12.430Z,15.93
2022-10-23T04:31:40.666Z,22.30
2022-10-23T04:34:08.013Z,14.57
2022-10-23T04:36:36.280Z,15.50
2022-10-23T04:39:10.130Z,15.32
2022-10-23T04:41:38.903Z,13.65
2022-10-23T04:44:07.293Z,16.15
2022-10-23T04:46:40.249Z,12.73
2022-10-23T04:49:07.837Z,13.40
2022-10-23T04:52:13.329Z,15.90
2022-10-23T04:54:49.150Z,14.18
2022-10-23T05:01:40.149Z,10.90
2022-10-23T05:09:06.049Z,14.25
2022-10-23T05:11:46.252Z,13.55
2022-10-23T05:14:15.598Z,12.27
2022-10-23T05:16:51.951Z,13.95
2022-10-23T05:19:45.867Z,12.15
2022-10-23T05:22:14.103Z,16.40
2022-10-23T05:24:51.710Z,12.40
2022-10-23T05:27:22.985Z,9.98
2022-10-23T05:29:51.941Z,13.07
2022-10-23T05:32:26.045Z,16.55
2022-10-23T05:34:54.432Z,10.00
2022-10-23T05:37:27.114Z,11.38
2022-10-23T05:40:04.944Z,12.88
2022-10-23T05:42:36.168Z,10.85
2022-10-23T05:45:06.229Z,13.00
2022-10-23T05:48:22.480Z,10.63
2022-10-23T05:51:49.821Z,19.48
2022-10-23T05:54:30.131Z,14.13
2022-10-23T06:02:13.499Z,9.25
2022-10-23T06:04:51.704Z,10.43
2022-10-23T06:09:06.479Z,9.15
2022-10-23T06:21:26.461Z,9.90
2022-10-23T06:28:20.801Z,9.75
2022-10-23T06:32:27.464Z,14.00
2022-10-23T06:35:08.279Z,12.90
2022-10-23T06:38:02.695Z,13.05
2022-10-23T06:42:18.607Z,10.73
2022-10-23T06:44:54.850Z,10.55
2022-10-23T06:49:25.489Z,13.20
2022-10-23T06:56:40.375Z,10.55
2022-10-23T06:59:09.834Z,9.50
2022-10-23T07:01:38.478Z,9.38
2022-10-23T07:04:31.043Z,13.32
2022-10-23T07:08:09.593Z,11.15
2022-10-23T07:10:45.260Z,11.15
2022-10-23T07:13:12.777Z,16.48
2022-10-23T07:15:41.656Z,12.32
2022-10-23T07:18:16.502Z,10.32
2022-10-23T07:22:13.323Z,14.40
2022-10-23T07:25:15.225Z,10.45
2022-10-23T07:27:42.824Z,11.48
2022-10-23T07:30:11.511Z,13.23
2022-10-23T07:32:46.161Z,11.60
2022-10-23T07:35:34.375Z,13.20
2022-10-23T07:38:08.279Z,8.80
2022-10-23T07:40:42.047Z,11.20
2022-10-23T07:43:36.065Z,9.70
2022-10-23T07:46:04.148Z,12.38
2022-10-23T07:48:39.212Z,12.25
2022-10-23T07:51:34.118Z,10.25
2022-10-23T07:54:01.402Z,9.68
2022-10-23T08:01:15.871Z,13.55
2022-10-23T08:03:43.338Z,12.35
2022-10-23T08:06:10.981Z,16.38
2022-10-23T08:08:38.352Z,12.13
2022-10-23T08:11:06.185Z,10.73
2022-10-23T08:13:44.312Z,14.00
2022-10-23T08:16:12.285Z,16.08
2022-10-23T08:18:58.672Z,11.02
2022-10-23T08:21:26.468Z,12.48
2022-10-23T08:23:59.524Z,13.13
2022-10-23T08:26:31.467Z,12.32
2022-10-23T08:29:00.116Z,10.98
2022-10-23T08:31:28.411Z,12.73
2022-10-23T08:34:22.019Z,9.82
2022-10-23T08:36:50.920Z,9.60
2022-10-23T08:39:19.571Z,11.68
2022-10-23T08:42:54.885Z,9.02
2022-10-23T08:46:09.333Z,10.15
2022-10-23T08:49:34.651Z,10.43
2022-10-23T08:52:16.108Z,9.02
2022-10-23T08:55:12.159Z,14.93
2022-10-23T08:57:47.393Z,11.10
2022-10-23T09:00:17.130Z,10.60
2022-10-23T09:02:51.426Z,14.32
2022-10-23T09:05:25.519Z,12.85
2022-10-23T09:08:20.462Z,8.82
2022-10-23T09:11:06.911Z,9.35
2022-10-23T09:13:51.469Z,10.15
2022-10-23T09:16:30.880Z,8.38
2022-10-23T09:18:59.120Z,9.85
2022-10-23T09:21:28.835Z,11.50
2022-10-23T09:23:56.757Z,9.77
2022-10-23T09:26:24.049Z,9.80
2022-10-23T09:28:56.876Z,10.25
2022-10-23T09:31:24.225Z,14.55
2022-10-23T09:34:01.246Z,8.88
2022-10-23T09:36:29.602Z,8.90
2022-10-23T09:38:59.457Z,11.70
2022-10-23T09:41:57.025Z,8.07
2022-10-23T09:45:33.136Z,9.07
2022-10-23T09:48:54.029Z,12.02
2022-10-23T09:51:22.149Z,9.43
2022-10-23T09:53:58.352Z,8.55
2022-10-23T09:56:40.248Z,10.07
2022-10-23T09:59:14.061Z,10.07
2022-10-23T10:02:21.205Z,8.37
2022-10-23T10:05:31.243Z,10.15
2022-10-23T10:08:12.311Z,11.75
2022-10-23T10:10:45.245Z,9.80
2022-10-23T10:13:32.827Z,10.00
2022-10-23T10:16:11.799Z,10.88
2022-10-23T10:18:57.417Z,8.45
2022-10-23T10:21:29.009Z,9.73
2022-10-23T10:24:19.958Z,6.35
2022-10-23T10:27:22.445Z,10.45
2022-10-23T10:30:12.686Z,8.93
2022-10-23T10:33:01.289Z,5.95
2022-10-23T10:35:38.452Z,8.65
2022-10-23T10:38:14.981Z,7.03
2022-10-23T10:40:49.308Z,7.90
2022-10-23T10:44:09.126Z,6.55
2022-10-23T10:46:46.738Z,6.35
2022-10-23T10:49:19.678Z,8.40
2022-10-23T10:52:13.548Z,6.47
2022-10-23T10:55:12.955Z,6.78
2022-10-23T10:57:45.956Z,9.40
2022-10-23T11:00:18.238Z,6.38
2022-10-23T11:03:02.897Z,7.75
2022-10-23T11:05:34.630Z,7.47
2022-10-23T11:08:44.595Z,9.73
2022-10-23T11:11:36.266Z,6.25
2022-10-23T11:14:04.022Z,8.95
2022-10-23T11:16:37.545Z,6.05
2022-10-23T11:19:25.453Z,8.18
2022-10-23T11:22:16.763Z,8.98
2022-10-23T11:25:12.661Z,7.85
2022-10-23T11:27:40.141Z,10.25
2022-10-23T11:30:37.827Z,7.82
2022-10-23T11:33:44.720Z,8.02
2022-10-23T11:36:20.746Z,8.48
2022-10-23T11:38:50.860Z,6.15
2022-10-23T11:41:26.674Z,8.68
2022-10-23T11:43:57.088Z,6.97
2022-10-23T11:46:27.213Z,10.55
2022-10-23T11:48:56.083Z,5.80
2022-10-23T11:51:33.802Z,4.97
2022-10-23T11:54:24.708Z,10.93
2022-10-23T11:57:10.315Z,5.72
2022-10-23T11:59:50.290Z,8.13
2022-10-23T12:02:26.720Z,7.47
2022-10-23T12:04:55.479Z,4.90
2022-10-23T12:07:35.916Z,5.68
2022-10-23T12:10:19.565Z,6.90
2022-10-23T12:13:01.889Z,6.25
2022-10-23T12:15:29.933Z,6.18
2022-10-23T12:18:16.015Z,4.45
2022-10-23T12:20:54.528Z,7.35
2022-10-23T12:23:48.166Z,6.68
2022-10-23T12:26:37.123Z,7.47
2022-10-23T12:29:33.661Z,6.45
2022-10-23T12:32:08.016Z,9.35
2022-10-23T12:34:53.865Z,6.93
2022-10-23T12:37:40.389Z,8.02
2022-10-23T12:40:10.174Z,6.63
2022-10-23T12:42:38.478Z,6.13
2022-10-23T12:45:26.135Z,9.23
2022-10-23T12:47:53.701Z,4.78
2022-10-23T12:50:27.262Z,7.47
2022-10-23T12:53:07.636Z,6.00
2022-10-23T12:56:05.848Z,6.90
2022-10-23T12:58:35.367Z,9.82
2022-10-23T13:01:07.500Z,7.50
2022-10-23T13:03:35.732Z,9.88
2022-10-23T13:06:03.696Z,6.93
2022-10-23T13:08:41.060Z,8.43
2022-10-23T13:11:35.494Z,5.70
2022-10-23T13:14:13.814Z,6.97
2022-10-23T13:16:41.255Z,7.85
2022-10-23T13:19:26.907Z,7.55
2022-10-23T13:21:54.371Z,7.13
2022-10-23T13:24:24.955Z,6.43
2022-10-23T13:26:52.785Z,7.68
2022-10-23T13:29:33.575Z,7.75
2022-10-23T13:32:23.772Z,11.05
2022-10-23T13:35:03.700Z,7.22
2022-10-23T13:37:31.786Z,8.93
2022-10-23T13:40:06.537Z,11.73
2022-10-23T13:42:33.985Z,9.48
2022-10-23T13:45:01.457Z,6.18
2022-10-23T13:47:28.917Z,9.85
2022-10-23T13:49:56.217Z,7.25
2022-10-23T13:52:23.909Z,6.38
2022-10-23T13:54:51.359Z,8.55
2022-10-23T13:57:18.767Z,8.20
2022-10-23T13:59:46.054Z,7.50
2022-10-23T14:02:22.746Z,7.82
2022-10-23T14:04:51.152Z,7.20
2022-10-23T14:07:18.508Z,10.70
2022-10-23T14:09:45.865Z,8.50
2022-10-23T14:12:13.639Z,6.38
2022-10-23T14:14:41.060Z,7.43
2022-10-23T14:17:08.754Z,9.13
2022-10-23T14:22:04.450Z,5.90
2022-10-23T14:24:31.805Z,6.30
2022-10-23T14:26:59.741Z,7.40
2022-10-23T14:29:27.487Z,8.23
2022-10-23T14:31:54.906Z,6.82
2022-10-23T14:34:22.331Z,6.13
2022-10-23T14:36:50.873Z,4.88
2022-10-23T14:39:24.205Z,8.60
2022-10-23T14:41:51.536Z,5.90
2022-10-23T14:44:18.827Z,7.68
2022-10-23T14:46:46.127Z,9.77
2022-10-23T14:49:13.460Z,7.32
2022-10-23T14:51:40.756Z,8.35
2022-10-23T14:54:08.569Z,8.73
2022-10-23T14:56:38.230Z,6.45
2022-10-23T14:59:06.547Z,8.35
2022-10-23T15:01:43.717Z,7.60
2022-10-23T15:04:14.715Z,6.32
2022-10-23T15:06:42.903Z,9.88
2022-10-23T15:09:10.501Z,6.32
2022-10-23T15:11:37.856Z,7.28
2022-10-23T15:14:05.425Z,6.30
2022-10-23T15:16:33.154Z,8.32
2022-10-23T15:19:00.524Z,9.00
2022-10-23T15:21:27.878Z,7.47
2022-10-23T15:23:55.459Z,15.05
2022-10-23T15:26:23.915Z,6.25
2022-10-23T15:28:56.412Z,11.73
2022-10-23T15:31:30.049Z,7.13
2022-10-23T15:33:57.845Z,9.87
2022-10-23T15:36:26.035Z,6.93
2022-10-23T15:38:53.503Z,6.88
2022-10-23T15:41:32.993Z,6.68
2022-10-23T15:44:01.784Z,7.13
2022-10-23T15:46:29.661Z,5.55
2022-10-23T15:48:57.088Z,10.10
2022-10-23T15:51:26.099Z,6.40
2022-10-23T15:53:53.727Z,8.50
2022-10-23T15:56:21.096Z,4.90
2022-10-23T15:58:48.499Z,4.57
2022-10-23T16:01:16.167Z,6.60
2022-10-23T16:03:43.711Z,5.05
2022-10-23T16:06:13.706Z,5.90
2022-10-23T16:08:43.664Z,6.60
2022-10-23T16:11:26.550Z,7.60
2022-10-23T16:13:58.750Z,6.25
2022-10-23T16:16:27.901Z,7.90
2022-10-23T16:18:55.636Z,6.30
2022-10-23T16:21:29.826Z,8.68
2022-10-23T16:23:59.130Z,7.00
2022-10-23T16:26:28.036Z,6.90
2022-10-23T16:29:01.414Z,7.28
2022-10-23T16:31:29.848Z,7.25
2022-10-23T16:33:59.436Z,5.65
2022-10-23T16:36:27.490Z,8.05
2022-10-23T16:39:19.737Z,8.75
2022-10-23T16:42:06.249Z,7.65
2022-10-23T16:44:44.927Z,8.50
2022-10-23T16:47:12.342Z,6.57
2022-10-23T16:49:39.803Z,6.72
2022-10-23T16:52:07.148Z,7.80
2022-10-23T16:54:34.707Z,8.77
2022-10-23T16:57:02.154Z,6.03
2022-10-23T16:59:29.501Z,7.60
2022-10-23T17:01:57.143Z,7.68
2022-10-23T17:04:24.507Z,7.95
2022-10-23T17:06:51.830Z,7.43
2022-10-23T17:09:19.452Z,7.50
2022-10-23T17:11:47.898Z,15.70
2022-10-23T17:14:18.753Z,10.43
2022-10-23T17:16:51.617Z,5.80
2022-10-23T17:22:11.091Z,7.95
2022-10-23T17:24:40.199Z,7.95
2022-10-23T17:27:07.734Z,8.88
2022-10-23T17:29:35.287Z,6.70
2022-10-23T17:32:02.793Z,7.57
2022-10-23T17:34:30.196Z,7.07
2022-10-23T17:36:57.770Z,6.43
2022-10-23T17:39:27.442Z,9.23
2022-10-23T17:41:55.972Z,7.45
2022-10-23T17:44:23.555Z,6.63
2022-10-23T17:46:53.505Z,6.45
2022-10-23T17:49:21.896Z,6.13
2022-10-23T17:51:52.863Z,7.45
2022-10-23T17:54:20.573Z,8.00
2022-10-23T17:56:47.953Z,9.98
2022-10-23T17:59:21.478Z,5.50
2022-10-23T18:01:49.596Z,6.88
2022-10-23T18:04:19.507Z,8.30
2022-10-23T18:06:52.793Z,6.00
2022-10-23T18:09:21.566Z,7.60
2022-10-23T18:11:50.025Z,8.45
2022-10-23T18:14:19.711Z,8.73
2022-10-23T18:16:47.684Z,7.45
2022-10-23T18:19:18.183Z,6.97
2022-10-23T18:21:46.338Z,8.98
2022-10-23T18:24:14.174Z,9.18
2022-10-23T18:26:42.293Z,8.23
2022-10-23T18:29:11.244Z,6.93
2022-10-23T18:31:39.070Z,9.40
2022-10-23T18:34:15.681Z,6.35
2022-10-23T18:36:43.123Z,11.20
2022-10-23T18:39:15.274Z,6.85
2022-10-23T18:41:44.912Z,7.95
2022-10-23T18:44:17.213Z,8.27
2022-10-23T18:46:48.897Z,12.68
2022-10-23T18:49:18.041Z,6.50
2022-10-23T18:51:45.585Z,10.68
2022-10-23T18:54:14.986Z,6.88
2022-10-23T18:56:42.487Z,8.80
2022-10-23T18:59:13.246Z,9.10
2022-10-23T19:01:41.152Z,8.88
2022-10-23T19:04:11.644Z,9.65
2022-10-23T19:06:39.361Z,6.07
2022-10-23T19:09:08.336Z,6.95
2022-10-23T19:11:37.199Z,6.25
2022-10-23T19:14:05.603Z,9.02
2022-10-23T19:16:44.749Z,8.38
2022-10-23T19:19:19.415Z,7.85
2022-10-23T19:21:47.712Z,6.63
2022-10-23T19:24:21.751Z,10.35
2022-10-23T19:26:49.778Z,8.88
2022-10-23T19:29:20.555Z,7.93
2022-10-23T19:31:49.248Z,9.07
2022-10-23T19:34:20.164Z,7.65
2022-10-23T19:36:48.428Z,4.97
2022-10-23T19:39:17.555Z,5.60
2022-10-23T19:41:45.161Z,9.18
2022-10-23T19:44:14.440Z,4.28
2022-10-23T19:46:41.760Z,6.03
2022-10-23T19:49:09.623Z,5.70
2022-10-23T19:51:37.449Z,5.30
2022-10-23T19:54:05.492Z,5.88
2022-10-23T19:56:32.834Z,4.55
2022-10-23T19:59:00.168Z,4.60
2022-10-23T20:01:27.668Z,5.30
2022-10-23T20:03:55.606Z,3.92
2022-10-23T20:06:25.569Z,5.50
2022-10-23T20:08:53.233Z,5.93
2022-10-23T20:11:25.057Z,7.93
2022-10-23T20:13:52.784Z,6.70
2022-10-23T20:16:22.183Z,5.70
2022-10-23T20:18:49.840Z,5.18
2022-10-23T20:21:17.684Z,6.53
2022-10-23T20:23:45.550Z,6.82
2022-10-23T20:26:16.320Z,7.47
2022-10-23T20:28:51.139Z,5.53
2022-10-23T20:31:19.892Z,4.13
2022-10-23T20:33:47.355Z,6.95
2022-10-23T20:36:22.478Z,4.68
2022-10-23T20:38:49.919Z,7.88
2022-10-23T20:41:17.680Z,6.32
2022-10-23T20:43:45.021Z,5.28
2022-10-23T20:46:12.364Z,5.47
2022-10-23T20:48:42.047Z,6.28
2022-10-23T20:51:12.598Z,6.18
2022-10-23T20:53:41.330Z,3.78
2022-10-23T20:56:29.866Z,4.47
2022-10-23T20:59:01.714Z,4.57
2022-10-23T21:01:31.114Z,4.07
2022-10-23T21:04:01.428Z,4.90
2022-10-23T21:06:45.427Z,3.70
2022-10-23T21:09:18.803Z,2.55
2022-10-23T21:11:46.477Z,4.32
2022-10-23T21:14:13.937Z,3.55
2022-10-23T21:16:44.300Z,2.63
2022-10-23T21:19:13.540Z,2.67
2022-10-23T21:21:40.899Z,3.50
2022-10-23T21:24:12.635Z,4.15
2022-10-23T21:26:39.960Z,2.40
2022-10-23T21:29:18.003Z,2.38
2022-10-23T21:31:52.810Z,1.85
2022-10-23T21:34:20.191Z,5.28
2022-10-23T21:37:10.853Z,1.98
2022-10-23T21:39:34.918Z,2.45
2022-10-23T21:42:02.235Z,2.47
2022-10-23T21:44:29.517Z,2.53
2022-10-23T21:46:56.829Z,3.30
2022-10-23T21:49:24.116Z,2.45
2022-10-23T21:51:51.455Z,3.25
2022-10-23T21:54:18.694Z,4.47
2022-10-23T21:56:48.429Z,2.25
2022-10-23T21:59:18.844Z,2.72
2022-10-23T22:01:47.688Z,4.55
2022-10-23T22:04:19.885Z,3.85
2022-10-23T22:06:49.650Z,2.28
2022-10-23T22:09:19.513Z,5.13
2022-10-23T22:11:49.630Z,6.28
2022-10-23T22:14:18.592Z,3.75
2022-10-23T22:16:46.158Z,4.47
2022-10-23T22:19:15.071Z,3.35
2022-10-23T22:21:42.800Z,4.32
2022-10-23T22:24:10.262Z,6.05
2022-10-23T22:26:46.808Z,3.15
2022-10-23T22:29:16.675Z,4.03
2022-10-23T22:31:47.289Z,3.22
2022-10-23T22:37:16.617Z,6.22
2022-10-23T22:39:43.898Z,3.70
2022-10-23T22:42:11.144Z,3.13
2022-10-23T22:44:38.374Z,3.97
2022-10-23T22:47:06.301Z,3.40
2022-10-23T22:49:33.691Z,4.57
2022-10-23T22:52:00.993Z,6.13
2022-10-23T22:54:30.436Z,3.28
2022-10-23T22:56:57.920Z,5.88
2022-10-23T22:59:25.223Z,5.13
2022-10-23T23:01:52.861Z,5.82
2022-10-23T23:07:10.398Z,4.00
2022-10-23T23:09:42.666Z,3.30
2022-10-23T23:12:12.082Z,5.95
2022-10-23T23:14:40.024Z,6.68
2022-10-23T23:17:34.511Z,6.25
2022-10-23T23:20:08.000Z,10.15
2022-10-23T23:22:38.885Z,5.13
2022-10-23T23:25:08.308Z,5.20
2022-10-23T23:27:35.784Z,3.60
2022-10-23T23:30:05.547Z,12.02
2022-10-23T23:32:33.262Z,6.47
2022-10-23T23:35:01.508Z,8.93
2022-10-23T23:37:28.963Z,8.65
2022-10-23T23:39:56.371Z,5.90
2022-10-23T23:42:23.787Z,5.28
2022-10-23T23:45:02.850Z,6.82
2022-10-23T23:47:37.645Z,5.43
2022-10-23T23:50:07.588Z,5.47
2022-10-23T23:52:35.177Z,6.85
2022-10-23T23:55:02.759Z,7.90
2022-10-23T23:57:30.176Z,11.65
2022-10-23T23:59:57.622Z,7.88
